createdAt,value
2017-11-17T00:02:05.406Z,8.50
2017-11-17T00:04:33.011Z,8.30
2017-11-17T00:07:00.684Z,8.00
2017-11-17T00:09:28.295Z,8.00
2017-11-17T00:11:56.584Z,8.00
2017-11-17T00:14:24.246Z,8.30
2017-11-17T00:16:51.860Z,8.40
2017-11-17T00:19:19.766Z,8.10
2017-11-17T00:21:47.379Z,7.80
2017-11-17T00:24:15.051Z,8.20
2017-11-17T00:26:42.707Z,7.90
2017-11-17T00:29:10.321Z,8.10
2017-11-17T00:31:37.995Z,8.30
2017-11-17T00:34:05.882Z,8.10
2017-11-17T00:36:33.490Z,7.80
2017-11-17T00:39:01.098Z,8.00
2017-11-17T00:41:28.749Z,8.00
2017-11-17T00:43:56.366Z,7.90
2017-11-17T00:46:24.023Z,8.10
2017-11-17T00:48:51.844Z,8.10
2017-11-17T00:51:19.643Z,7.80
2017-11-17T00:53:47.249Z,7.60
2017-11-17T00:56:14.903Z,7.60
2017-11-17T00:58:42.513Z,7.60
2017-11-17T01:01:10.166Z,7.60
2017-11-17T01:03:37.804Z,7.60
2017-11-17T01:06:05.462Z,7.50
2017-11-17T01:08:33.363Z,7.50
2017-11-17T01:11:00.982Z,7.30
2017-11-17T01:13:28.643Z,7.20
2017-11-17T01:15:56.243Z,7.40
2017-11-17T01:18:23.854Z,7.20
2017-11-17T01:20:52.156Z,7.40
2017-11-17T01:23:19.818Z,7.30
2017-11-17T01:25:47.428Z,7.30
2017-11-17T01:28:15.878Z,7.30
2017-11-17T01:30:43.511Z,7.00
2017-11-17T01:33:11.297Z,7.30
2017-11-17T01:35:38.976Z,7.30
2017-11-17T01:38:06.650Z,6.90
2017-11-17T01:40:35.032Z,6.80
2017-11-17T01:43:02.689Z,7.10
2017-11-17T01:45:31.121Z,6.70
2017-11-17T01:47:58.734Z,6.80
2017-11-17T01:50:27.174Z,6.90
2017-11-17T01:52:54.779Z,6.60
2017-11-17T01:55:22.404Z,6.80
2017-11-17T01:57:50.133Z,6.80
2017-11-17T02:00:18.010Z,6.60
2017-11-17T02:02:45.665Z,6.40
2017-11-17T02:05:13.444Z,6.40
2017-11-17T02:07:41.083Z,6.50
2017-11-17T02:10:08.691Z,6.60
2017-11-17T02:12:37.107Z,6.40
2017-11-17T02:15:04.784Z,6.20
2017-11-17T02:17:32.430Z,6.50
2017-11-17T02:20:00.119Z,6.00
2017-11-17T02:22:27.849Z,6.20
2017-11-17T02:24:55.924Z,6.20
2017-11-17T02:27:23.595Z,6.10
2017-11-17T02:29:51.265Z,6.20
2017-11-17T02:32:18.974Z,6.20
2017-11-17T02:34:46.628Z,6.20
2017-11-17T02:37:15.098Z,6.20
2017-11-17T02:39:43.561Z,6.10
2017-11-17T02:42:11.208Z,5.80
2017-11-17T02:44:38.995Z,5.80
2017-11-17T02:47:06.660Z,5.80
2017-11-17T02:49:34.371Z,5.70
2017-11-17T02:52:02.027Z,5.90
2017-11-17T02:54:29.994Z,5.80
2017-11-17T02:56:57.652Z,5.70
2017-11-17T02:59:25.306Z,5.60
2017-11-17T03:01:52.992Z,5.80
2017-11-17T03:04:20.667Z,5.70
2017-11-17T03:06:48.297Z,5.60
2017-11-17T03:09:16.196Z,5.50
2017-11-17T03:11:43.874Z,5.80
2017-11-17T03:14:11.812Z,5.70
2017-11-17T03:16:39.499Z,5.60
2017-11-17T03:19:07.110Z,5.50
2017-11-17T03:21:34.748Z,5.30
2017-11-17T03:24:03.172Z,5.30
2017-11-17T03:26:30.858Z,5.10
2017-11-17T03:28:58.508Z,5.20
2017-11-17T03:31:26.219Z,5.40
2017-11-17T03:33:53.856Z,5.10
2017-11-17T03:36:22.917Z,5.40
2017-11-17T03:38:50.567Z,5.30
2017-11-17T03:41:18.191Z,4.90
2017-11-17T03:43:45.868Z,5.40
2017-11-17T03:46:13.544Z,4.90
2017-11-17T03:48:41.162Z,5.10
2017-11-17T03:51:08.823Z,4.90
2017-11-17T03:53:37.233Z,4.90
2017-11-17T03:56:04.919Z,5.00
2017-11-17T03:58:32.600Z,5.10
2017-11-17T04:01:01.010Z,4.80
2017-11-17T04:03:28.639Z,5.10
2017-11-17T04:05:57.059Z,4.60
2017-11-17T04:08:24.726Z,4.90
2017-11-17T04:10:52.403Z,5.00
2017-11-17T04:13:20.038Z,4.50
2017-11-17T04:15:48.207Z,4.70
2017-11-17T04:18:16.400Z,4.70
2017-11-17T04:20:44.007Z,4.60
2017-11-17T04:23:12.423Z,4.50
2017-11-17T04:25:40.084Z,4.30
2017-11-17T04:28:07.786Z,4.80
2017-11-17T04:30:35.403Z,4.50
2017-11-17T04:33:03.052Z,4.60
2017-11-17T04:35:30.716Z,4.40
2017-11-17T04:37:58.339Z,4.20
2017-11-17T04:40:26.027Z,4.30
2017-11-17T04:42:53.696Z,4.20
2017-11-17T04:45:21.493Z,4.20
2017-11-17T04:47:49.118Z,4.30
2017-11-17T04:50:16.813Z,4.10
2017-11-17T04:52:44.455Z,4.20
2017-11-17T04:55:12.078Z,4.20
2017-11-17T04:57:40.307Z,4.20
2017-11-17T05:00:08.463Z,4.20
2017-11-17T05:02:36.141Z,4.20
2017-11-17T05:05:03.863Z,4.20
2017-11-17T05:07:31.492Z,4.20
2017-11-17T05:09:59.340Z,4.20
2017-11-17T05:12:27.109Z,4.20
2017-11-17T05:14:55.264Z,4.20
2017-11-17T05:17:24.706Z,4.10
2017-11-17T05:19:52.722Z,3.90
2017-11-17T05:22:21.670Z,3.90
2017-11-17T05:24:50.613Z,3.90
2017-11-17T05:27:18.290Z,4.00
2017-11-17T05:29:46.671Z,3.90
2017-11-17T05:32:18.583Z,3.80
2017-11-17T05:34:46.620Z,3.90
2017-11-17T05:37:15.265Z,3.90
2017-11-17T05:39:42.915Z,4.00
2017-11-17T05:42:11.116Z,3.90
2017-11-17T05:44:39.723Z,3.90
2017-11-17T05:47:08.392Z,3.90
2017-11-17T05:49:36.079Z,3.70
2017-11-17T05:52:06.260Z,3.90
2017-11-17T05:54:34.673Z,3.90
2017-11-17T05:57:02.286Z,3.90
2017-11-17T05:59:31.847Z,3.90
2017-11-17T06:01:59.565Z,3.80
2017-11-17T06:04:27.414Z,3.90
2017-11-17T06:06:55.102Z,3.80
2017-11-17T06:09:23.506Z,3.90
2017-11-17T06:11:53.563Z,3.80
2017-11-17T06:14:23.081Z,3.90
2017-11-17T06:16:51.018Z,3.70
2017-11-17T06:19:18.907Z,3.60
2017-11-17T06:21:47.531Z,3.60
2017-11-17T06:24:16.001Z,3.60
2017-11-17T06:26:43.906Z,3.70
2017-11-17T06:29:11.634Z,3.60
2017-11-17T06:31:40.823Z,3.70
2017-11-17T06:34:08.466Z,3.60
2017-11-17T06:36:37.452Z,3.60
2017-11-17T06:39:05.067Z,3.60
2017-11-17T06:41:34.137Z,3.70
2017-11-17T06:44:01.858Z,3.60
2017-11-17T06:46:29.519Z,3.60
2017-11-17T06:48:58.204Z,3.70
2017-11-17T06:51:26.191Z,3.60
2017-11-17T06:53:54.319Z,3.60
2017-11-17T06:56:21.939Z,3.60
2017-11-17T06:58:50.000Z,3.70
2017-11-17T07:01:18.321Z,3.60
2017-11-17T07:03:46.326Z,3.70
2017-11-17T07:06:14.022Z,3.60
2017-11-17T07:08:42.422Z,3.60
2017-11-17T07:11:10.086Z,3.70
2017-11-17T07:13:40.394Z,3.60
2017-11-17T07:16:08.078Z,3.50
2017-11-17T07:18:35.695Z,3.60
2017-11-17T07:21:03.306Z,3.50
2017-11-17T07:23:31.914Z,3.60
2017-11-17T07:25:59.695Z,3.90
2017-11-17T07:28:27.322Z,3.70
2017-11-17T07:30:55.309Z,3.60
2017-11-17T07:33:23.157Z,3.90
2017-11-17T07:35:50.827Z,3.80
2017-11-17T07:38:18.450Z,4.00
2017-11-17T07:40:46.111Z,3.70
2017-11-17T07:43:13.902Z,3.80
2017-11-17T07:45:41.517Z,3.90
2017-11-17T07:48:09.391Z,3.90
2017-11-17T07:50:37.037Z,3.90
2017-11-17T07:53:04.697Z,3.90
2017-11-17T07:55:32.408Z,4.10
2017-11-17T07:58:00.174Z,4.20
2017-11-17T08:00:27.799Z,4.30
2017-11-17T08:02:55.612Z,4.20
2017-11-17T08:05:23.465Z,4.30
2017-11-17T08:07:51.134Z,4.10
2017-11-17T08:10:18.792Z,4.40
2017-11-17T08:12:46.398Z,4.50
2017-11-17T08:15:14.126Z,4.70
2017-11-17T08:17:53.859Z,4.80
2017-11-17T08:20:21.905Z,4.60
2017-11-17T08:22:49.780Z,5.10
2017-11-17T08:25:17.446Z,4.80
2017-11-17T08:27:45.213Z,4.90
2017-11-17T08:30:12.873Z,5.30
2017-11-17T08:32:40.487Z,5.50
2017-11-17T08:35:08.902Z,5.40
2017-11-17T08:37:36.521Z,5.80
2017-11-17T08:40:04.272Z,5.70
2017-11-17T08:42:32.499Z,5.70
2017-11-17T08:45:00.366Z,5.90
2017-11-17T08:47:28.740Z,6.10
2017-11-17T08:49:56.706Z,6.10
2017-11-17T08:52:24.470Z,6.20
2017-11-17T08:54:52.249Z,6.20
2017-11-17T08:57:19.997Z,6.20
2017-11-17T08:59:47.681Z,6.50
2017-11-17T09:02:15.342Z,6.50
2017-11-17T09:04:43.007Z,6.60
2017-11-17T09:07:10.954Z,6.40
2017-11-17T09:09:38.727Z,6.70
2017-11-17T09:12:06.572Z,6.70
2017-11-17T09:14:34.317Z,6.80
2017-11-17T09:17:01.986Z,6.90
2017-11-17T09:19:29.607Z,6.90
2017-11-17T09:21:57.267Z,6.90
2017-11-17T09:24:26.298Z,7.10
2017-11-17T09:26:53.992Z,6.90
2017-11-17T09:29:22.143Z,7.10
2017-11-17T09:31:50.337Z,7.20
2017-11-17T09:34:19.002Z,7.30
2017-11-17T09:36:46.616Z,7.50
2017-11-17T09:39:14.299Z,7.70
2017-11-17T09:41:41.915Z,7.50
2017-11-17T09:44:09.565Z,7.50
2017-11-17T09:46:37.473Z,7.50
2017-11-17T09:49:05.151Z,7.40
2017-11-17T09:51:32.910Z,7.50
2017-11-17T09:54:00.979Z,7.50
2017-11-17T09:56:28.591Z,7.50
2017-11-17T09:58:56.211Z,7.70
2017-11-17T10:01:23.894Z,7.70
2017-11-17T10:03:51.651Z,7.50
2017-11-17T10:06:19.323Z,7.80
2017-11-17T10:08:46.961Z,7.70
2017-11-17T10:11:14.634Z,7.40
2017-11-17T10:13:42.260Z,7.70
2017-11-17T10:16:09.925Z,7.80
2017-11-17T10:18:37.569Z,7.70
2017-11-17T10:21:05.394Z,7.80
2017-11-17T10:23:33.216Z,7.90
2017-11-17T10:26:01.397Z,8.10
2017-11-17T10:28:29.052Z,7.80
2017-11-17T10:30:56.676Z,8.10
2017-11-17T10:33:24.331Z,8.10
2017-11-17T10:35:51.950Z,8.10
2017-11-17T10:38:19.619Z,8.50
2017-11-17T10:40:47.274Z,8.30
2017-11-17T10:43:15.243Z,8.40
2017-11-17T10:45:42.879Z,8.10
2017-11-17T10:48:10.576Z,8.40
2017-11-17T10:50:39.015Z,8.20
2017-11-17T10:53:06.654Z,8.00
2017-11-17T10:55:34.318Z,8.30
2017-11-17T10:58:01.974Z,8.40
2017-11-17T11:00:29.610Z,8.20
2017-11-17T11:02:57.978Z,8.20
2017-11-17T11:05:25.624Z,8.40
2017-11-17T11:07:53.283Z,8.20
2017-11-17T11:10:23.649Z,8.70
2017-11-17T11:12:51.322Z,8.40
2017-11-17T11:15:18.991Z,8.50
2017-11-17T11:17:46.630Z,8.80
2017-11-17T11:20:14.350Z,8.60
2017-11-17T11:22:41.974Z,8.70
2017-11-17T11:25:09.594Z,8.60
2017-11-17T11:27:37.271Z,8.80
2017-11-17T11:30:04.897Z,8.50
2017-11-17T11:32:32.591Z,8.50
2017-11-17T11:35:00.416Z,8.60
2017-11-17T11:37:28.704Z,8.60
2017-11-17T11:39:56.330Z,8.90
2017-11-17T11:42:23.947Z,8.60
2017-11-17T11:44:51.865Z,9.20
2017-11-17T11:47:19.476Z,8.90
2017-11-17T11:49:47.079Z,9.20
2017-11-17T11:52:15.071Z,8.90
2017-11-17T11:54:42.678Z,8.90
2017-11-17T11:57:10.287Z,9.20
2017-11-17T11:59:38.442Z,9.00
2017-11-17T12:02:06.092Z,9.00
2017-11-17T12:04:33.882Z,9.20
2017-11-17T12:07:01.492Z,9.10
2017-11-17T12:09:29.103Z,9.00
2017-11-17T12:11:56.859Z,8.90
2017-11-17T12:14:24.474Z,9.00
2017-11-17T12:16:52.128Z,9.60
2017-11-17T12:19:19.730Z,9.40
2017-11-17T12:21:47.380Z,9.30
2017-11-17T12:24:14.999Z,9.30
2017-11-17T12:26:42.737Z,9.20
2017-11-17T12:29:10.682Z,9.10
2017-11-17T12:31:38.318Z,9.20
2017-11-17T12:34:06.195Z,8.90
2017-11-17T12:36:33.858Z,9.20
2017-11-17T12:39:01.539Z,9.30
2017-11-17T12:41:29.147Z,8.90
2017-11-17T12:43:56.799Z,9.30
2017-11-17T12:46:24.412Z,9.20
2017-11-17T12:48:52.038Z,9.10
2017-11-17T12:51:19.701Z,8.90
2017-11-17T12:53:47.315Z,8.90
2017-11-17T12:56:15.756Z,8.60
2017-11-17T12:58:43.408Z,8.80
2017-11-17T13:01:11.077Z,8.50
2017-11-17T13:03:38.681Z,8.60
2017-11-17T13:06:07.331Z,8.70
2017-11-17T13:08:34.995Z,8.60
2017-11-17T13:11:03.227Z,8.60
2017-11-17T13:13:31.298Z,8.50
2017-11-17T13:15:58.904Z,8.80
2017-11-17T13:18:26.518Z,8.60
2017-11-17T13:20:54.167Z,8.60
2017-11-17T13:23:22.049Z,8.60
2017-11-17T13:25:49.739Z,8.60
2017-11-17T13:28:17.351Z,8.90
2017-11-17T13:30:45.011Z,8.60
2017-11-17T13:33:12.664Z,8.50
2017-11-17T13:35:40.324Z,8.70
2017-11-17T13:38:07.942Z,8.50
2017-11-17T13:40:35.616Z,8.60
2017-11-17T13:43:03.472Z,8.50
2017-11-17T13:45:31.089Z,8.40
2017-11-17T13:47:58.991Z,8.50
2017-11-17T13:50:27.387Z,8.40
2017-11-17T13:52:54.999Z,8.50
2017-11-17T13:55:22.656Z,8.50
2017-11-17T13:57:50.303Z,8.50
2017-11-17T14:00:17.954Z,8.60
2017-11-17T14:02:45.567Z,8.50
2017-11-17T14:05:13.331Z,8.50
2017-11-17T14:07:41.185Z,8.50
2017-11-17T14:10:08.947Z,8.70
2017-11-17T14:12:36.712Z,9.20
2017-11-17T14:15:05.092Z,8.90
2017-11-17T14:17:33.162Z,9.00
2017-11-17T14:20:00.925Z,9.00
2017-11-17T14:22:28.686Z,8.70
2017-11-17T14:24:56.448Z,8.60
2017-11-17T14:27:24.210Z,8.60
2017-11-17T14:29:51.973Z,8.60
2017-11-17T14:32:19.737Z,8.50
2017-11-17T14:34:47.808Z,8.50
2017-11-17T14:37:15.875Z,8.70
2017-11-17T14:39:43.638Z,8.50
2017-11-17T14:42:11.708Z,8.30
2017-11-17T14:44:39.473Z,8.40
2017-11-17T14:47:07.241Z,8.20
2017-11-17T14:49:34.998Z,8.10
2017-11-17T14:52:02.762Z,8.10
2017-11-17T14:54:30.522Z,8.20
2017-11-17T14:56:58.594Z,7.90
2017-11-17T14:59:26.360Z,8.30
2017-11-17T15:01:54.126Z,7.90
2017-11-17T15:04:22.194Z,7.80
2017-11-17T15:06:49.954Z,8.00
2017-11-17T15:09:18.263Z,7.90
2017-11-17T15:11:46.704Z,7.70
2017-11-17T15:14:14.472Z,7.60
2017-11-17T15:16:42.539Z,7.60
2017-11-17T15:19:10.611Z,7.40
2017-11-17T15:21:38.679Z,7.50
2017-11-17T15:24:06.448Z,7.40
2017-11-17T15:26:35.126Z,7.50
2017-11-17T15:29:02.892Z,7.40
2017-11-17T15:31:30.653Z,7.10
2017-11-17T15:33:58.722Z,7.10
2017-11-17T15:36:26.793Z,7.00
2017-11-17T15:38:54.865Z,7.00
2017-11-17T15:41:22.943Z,6.70
2017-11-17T15:43:51.530Z,6.80
2017-11-17T15:46:19.384Z,6.90
2017-11-17T15:48:47.142Z,6.70
2017-11-17T15:51:15.214Z,6.90
2017-11-17T15:53:42.976Z,6.80
2017-11-17T15:56:11.022Z,6.80
2017-11-17T15:58:39.114Z,6.30
2017-11-17T16:01:08.248Z,6.60
2017-11-17T16:03:36.177Z,6.30
2017-11-17T16:06:05.433Z,6.90
2017-11-17T16:08:34.161Z,6.70
2017-11-17T16:11:02.229Z,6.60
2017-11-17T16:13:30.156Z,6.40
2017-11-17T16:15:58.063Z,6.50
2017-11-17T16:18:25.824Z,6.30
2017-11-17T16:20:53.897Z,6.50
2017-11-17T16:23:24.484Z,6.30
2017-11-17T16:25:53.670Z,6.50
2017-11-17T16:28:21.485Z,6.30
2017-11-17T16:30:51.196Z,6.50
2017-11-17T16:33:19.148Z,6.30
2017-11-17T16:35:46.923Z,6.50
2017-11-17T16:38:14.688Z,6.30
2017-11-17T16:40:45.445Z,6.20
2017-11-17T16:43:14.212Z,6.20
2017-11-17T16:45:41.972Z,6.50
2017-11-17T16:48:10.061Z,6.00
2017-11-17T16:50:39.755Z,6.00
2017-11-17T16:53:08.230Z,5.90
2017-11-17T16:55:36.092Z,6.10
2017-11-17T16:58:04.636Z,6.20
2017-11-17T17:00:33.469Z,5.90
2017-11-17T17:03:01.326Z,6.10
2017-11-17T17:05:29.425Z,6.10
2017-11-17T17:07:58.080Z,6.20
2017-11-17T17:10:25.846Z,6.10
2017-11-17T17:15:46.558Z,5.90
2017-11-17T17:18:14.329Z,6.20
2017-11-17T17:20:42.034Z,6.00
2017-11-17T17:23:10.769Z,6.40
2017-11-17T17:25:38.534Z,5.90
2017-11-17T17:28:07.815Z,6.10
2017-11-17T17:30:35.550Z,6.40
2017-11-17T17:33:03.671Z,6.20
2017-11-17T17:35:31.731Z,6.00
2017-11-17T17:37:59.498Z,6.00
2017-11-17T17:40:27.971Z,6.40
2017-11-17T17:42:55.950Z,6.40
2017-11-17T17:45:23.708Z,6.40
2017-11-17T17:47:51.475Z,6.40
2017-11-17T17:50:19.594Z,6.40
2017-11-17T17:52:48.021Z,6.40
2017-11-17T17:55:16.293Z,6.10
2017-11-17T17:57:44.670Z,6.40
2017-11-17T18:00:12.444Z,6.40
2017-11-17T18:02:40.508Z,6.40
2017-11-17T18:05:08.573Z,6.40
2017-11-17T18:07:36.336Z,6.40
2017-11-17T18:10:04.410Z,6.40
2017-11-17T18:12:32.477Z,6.40
2017-11-17T18:15:00.256Z,6.40
2017-11-17T18:17:28.865Z,6.40
2017-11-17T18:19:57.871Z,6.40
2017-11-17T18:22:25.693Z,6.30
2017-11-17T18:24:53.749Z,6.40
2017-11-17T18:27:21.518Z,6.40
2017-11-17T18:29:49.275Z,6.40
2017-11-17T18:32:17.086Z,6.40
2017-11-17T18:34:45.107Z,6.40
2017-11-17T18:37:13.176Z,6.40
2017-11-17T18:39:41.889Z,6.50
2017-11-17T18:42:09.681Z,6.40
2017-11-17T18:44:37.505Z,6.70
2017-11-17T18:47:05.537Z,6.20
2017-11-17T18:49:34.772Z,6.60
2017-11-17T18:52:03.498Z,6.60
2017-11-17T18:54:31.201Z,6.50
2017-11-17T18:56:59.284Z,6.60
2017-11-17T18:59:27.066Z,6.70
2017-11-17T19:01:55.110Z,6.50
2017-11-17T19:04:23.265Z,6.60
2017-11-17T19:06:51.258Z,6.70
2017-11-17T19:09:21.211Z,6.80
2017-11-17T19:11:49.226Z,6.60
2017-11-17T19:14:17.057Z,6.70
2017-11-17T19:16:45.038Z,6.70
2017-11-17T19:19:12.838Z,7.00
2017-11-17T19:21:40.586Z,6.70
2017-11-17T19:24:08.349Z,7.00
2017-11-17T19:26:36.114Z,6.70
2017-11-17T19:29:04.185Z,7.00
2017-11-17T19:31:31.951Z,7.00
2017-11-17T19:34:00.018Z,7.00
2017-11-17T19:36:27.778Z,7.10
2017-11-17T19:38:55.540Z,7.00
2017-11-17T19:41:23.614Z,7.00
2017-11-17T19:43:51.310Z,7.00
2017-11-17T19:46:24.849Z,6.80
2017-11-17T19:48:53.352Z,6.50
2017-11-17T19:51:21.422Z,6.80
2017-11-17T19:53:49.188Z,6.70
2017-11-17T19:56:18.322Z,6.80
2017-11-17T19:58:46.244Z,6.60
2017-11-17T20:01:14.027Z,6.70
2017-11-17T20:03:41.773Z,6.70
2017-11-17T20:06:09.537Z,6.80
2017-11-17T20:08:37.604Z,6.60
2017-11-17T20:11:05.322Z,6.70
2017-11-17T20:13:33.130Z,6.80
2017-11-17T20:16:01.199Z,6.60
2017-11-17T20:18:28.965Z,6.60
2017-11-17T20:20:56.609Z,6.70
2017-11-17T20:23:24.492Z,6.50
2017-11-17T20:25:52.253Z,6.60
2017-11-17T20:28:21.127Z,6.70
2017-11-17T20:30:53.953Z,6.70
2017-11-17T20:33:27.323Z,6.70
2017-11-17T20:35:58.659Z,6.50
2017-11-17T20:38:26.425Z,6.60
2017-11-17T20:40:54.225Z,6.90
2017-11-17T20:43:22.263Z,6.80
2017-11-17T20:45:51.558Z,6.60
2017-11-17T20:48:19.320Z,6.70
2017-11-17T20:50:47.063Z,7.00
2017-11-17T20:53:14.853Z,6.60
2017-11-17T20:55:42.611Z,6.70
2017-11-17T20:58:10.371Z,6.80
2017-11-17T21:00:38.054Z,6.60
2017-11-17T21:03:05.899Z,6.70
2017-11-17T21:05:33.661Z,6.50
2017-11-17T21:08:02.346Z,6.60
2017-11-17T21:10:30.060Z,6.60
2017-11-17T21:12:57.869Z,6.70
2017-11-17T21:15:25.942Z,6.70
2017-11-17T21:17:53.711Z,6.50
2017-11-17T21:20:22.436Z,6.50
2017-11-17T21:22:56.566Z,6.60
2017-11-17T21:25:25.182Z,6.70
2017-11-17T21:27:53.050Z,6.80
2017-11-17T21:30:20.813Z,6.60
2017-11-17T21:32:48.882Z,6.70
2017-11-17T21:35:16.649Z,6.80
2017-11-17T21:37:44.420Z,6.60
2017-11-17T21:40:12.478Z,6.70
2017-11-17T21:42:40.798Z,6.80
2017-11-17T21:45:08.539Z,6.60
2017-11-17T21:47:36.634Z,6.70
2017-11-17T21:50:05.898Z,6.60
2017-11-17T21:52:33.748Z,6.70
2017-11-17T21:55:01.512Z,6.80
2017-11-17T21:57:29.582Z,6.60
2017-11-17T21:59:57.346Z,6.70
2017-11-17T22:02:25.416Z,6.80
2017-11-17T22:04:53.178Z,6.60
2017-11-17T22:07:21.248Z,6.70
2017-11-17T22:09:48.851Z,6.50
2017-11-17T22:12:16.844Z,6.60
2017-11-17T22:14:44.486Z,6.70
2017-11-17T22:17:12.867Z,6.50
2017-11-17T22:19:40.526Z,6.40
2017-11-17T22:22:08.175Z,6.40
2017-11-17T22:24:35.866Z,6.40
2017-11-17T22:27:03.940Z,6.40
2017-11-17T22:29:32.306Z,6.40
2017-11-17T22:31:59.923Z,6.40
2017-11-17T22:34:27.583Z,6.40
2017-11-17T22:36:55.214Z,6.50
2017-11-17T22:39:22.823Z,6.50
2017-11-17T22:41:50.486Z,6.50
2017-11-17T22:44:18.880Z,6.60
2017-11-17T22:46:46.486Z,6.50
2017-11-17T22:49:14.138Z,6.50
2017-11-17T22:51:41.794Z,6.60
2017-11-17T22:54:09.410Z,6.60
2017-11-17T22:56:37.061Z,6.60
2017-11-17T22:59:05.708Z,6.40
2017-11-17T23:01:33.322Z,6.50
2017-11-17T23:04:01.119Z,6.60
2017-11-17T23:06:28.741Z,6.70
2017-11-17T23:08:56.482Z,6.40
2017-11-17T23:11:24.922Z,6.80
2017-11-17T23:13:52.534Z,6.50
2017-11-17T23:16:20.145Z,6.50
2017-11-17T23:18:47.812Z,6.60
2017-11-17T23:21:16.222Z,6.40
2017-11-17T23:23:44.873Z,6.60
2017-11-17T23:26:12.489Z,6.30
2017-11-17T23:28:40.135Z,6.40
2017-11-17T23:31:08.511Z,6.40
2017-11-17T23:33:37.233Z,6.60
2017-11-17T23:36:04.927Z,6.60
2017-11-17T23:38:32.768Z,6.40
2017-11-17T23:41:00.383Z,6.40
2017-11-17T23:43:28.050Z,6.70
2017-11-17T23:45:55.748Z,6.30
2017-11-17T23:48:23.463Z,6.60
2017-11-17T23:50:51.926Z,6.40
2017-11-17T23:53:20.426Z,6.40
2017-11-17T23:55:48.092Z,6.10
2017-11-17T23:58:15.821Z,6.40
